Portada
METAR-TAF:

METAR-TAF

Aeroports :

Brighton, Anglaterra

latitud: 50-50N, longitud: 000-17W, altitud: 2 m

Observació

L'informe es va fer fa 11 hores i 45 minuts, a les 19:50 UTC
Vent 7 kt del Nord
Temperatura 6°C
Humitat 93%
Pressió 1000 hPa
Visibilitat 10 km o més
Escasses núvols a una alçada de 900 ft
Núvols disperses a una alçada de 2800 ft
xàfecs de pluja

METAR: EGKA 141950Z 35007KT 9999 -SHRA FEW009 SCT028 06/05 Q1000 RESHRA

Hora: 07:35 (07:35 UTC)

Pronòstic

L'informe es va fer fa 14 hores i 14 minuts, a les 17:21 UTC
Pronòstic vàlid del 14 a les 18 UTC al 14 a les 20 UTC
Vent 8 kt del Est
Visibilitat 10 km o més
Núvols disperses a una alçada de 2000 ft
Probabilitat 40% :
Temporalment
l' 14 a les 18 UTC al 14 a les 20 UTC
Visibilitat: 6000 m
xàfecs de pluja

TAF: EGKA 141721Z 1418/1420 08008KT 9999 SCT020 PROB40 TEMPO 1418/1420 6000 SHRA

Observacions i pronòstics meteorològics de més de 4000 aeroports (METAR i TAF).

Les estacions disponibles són els punts grocs i vermells al mapa.

Posi el ratolí al punt desitjat per veure el nom de l'estació.

Feu clic per veure les observacions i els pronòstics meteorològics.

Per canviar el mapa: feu clic els botons verds amb una creu de color negre per apropar; al botó verd amb un guió per allunyar la imatge; o en les fletxes verdes per a mapes adjacents.


METAR-TAF: